sensor_id;sensor_type;location;lat;lon;timestamp;pressure;altitude;pressure_sealevel;temperature;humidity
6224;BME280;3145;42.726;23.342;2022-09-12T00:00:41;95136.50;;;16.44;95.28
6224;BME280;3145;42.726;23.342;2022-09-12T00:03:08;95135.28;;;16.40;95.58
6224;BME280;3145;42.726;23.342;2022-09-12T00:05:40;95132.81;;;16.45;95.29
6224;BME280;3145;42.726;23.342;2022-09-12T00:08:07;95147.59;;;16.47;95.09
6224;BME280;3145;42.726;23.342;2022-09-12T00:10:36;95150.63;;;16.51;95.06
6224;BME280;3145;42.726;23.342;2022-09-12T00:13:04;95154.53;;;16.48;94.64
6224;BME280;3145;42.726;23.342;2022-09-12T00:15:32;95142.94;;;16.36;94.73
6224;BME280;3145;42.726;23.342;2022-09-12T00:18:02;95152.53;;;16.44;95.34
6224;BME280;3145;42.726;23.342;2022-09-12T00:20:29;95154.75;;;16.47;94.99
6224;BME280;3145;42.726;23.342;2022-09-12T00:22:56;95152.03;;;16.53;95.23
6224;BME280;3145;42.726;23.342;2022-09-12T00:25:23;95144.84;;;16.54;94.61
6224;BME280;3145;42.726;23.342;2022-09-12T00:27:49;95144.22;;;16.52;94.55
6224;BME280;3145;42.726;23.342;2022-09-12T00:30:17;95146.53;;;16.48;94.07
6224;BME280;3145;42.726;23.342;2022-09-12T00:32:44;95151.03;;;16.48;93.58
6224;BME280;3145;42.726;23.342;2022-09-12T00:35:11;95145.97;;;16.40;94.03
6224;BME280;3145;42.726;23.342;2022-09-12T00:37:37;95149.66;;;16.39;94.23
6224;BME280;3145;42.726;23.342;2022-09-12T00:40:05;95151.78;;;16.30;93.67
6224;BME280;3145;42.726;23.342;2022-09-12T00:42:32;95147.72;;;16.28;93.60
6224;BME280;3145;42.726;23.342;2022-09-12T00:44:59;95145.94;;;16.22;93.36
6224;BME280;3145;42.726;23.342;2022-09-12T00:47:28;95148.59;;;16.22;93.91
6224;BME280;3145;42.726;23.342;2022-09-12T00:50:03;95152.28;;;16.21;93.68
6224;BME280;3145;42.726;23.342;2022-09-12T00:52:34;95147.97;;;16.20;93.49
6224;BME280;3145;42.726;23.342;2022-09-12T00:55:06;95149.88;;;16.13;93.09
6224;BME280;3145;42.726;23.342;2022-09-12T00:57:39;95147.88;;;16.08;93.44
6224;BME280;3145;42.726;23.342;2022-09-12T01:00:11;95144.13;;;16.16;94.09
6224;BME280;3145;42.726;23.342;2022-09-12T01:02:45;95140.25;;;16.12;93.42
6224;BME280;3145;42.726;23.342;2022-09-12T01:05:13;95130.75;;;15.98;93.53
6224;BME280;3145;42.726;23.342;2022-09-12T01:07:40;95136.50;;;15.95;93.49
6224;BME280;3145;42.726;23.342;2022-09-12T01:10:09;95140.53;;;16.04;93.81
6224;BME280;3145;42.726;23.342;2022-09-12T01:12:38;95134.00;;;16.00;93.55
6224;BME280;3145;42.726;23.342;2022-09-12T01:15:06;95138.28;;;16.01;92.99
6224;BME280;3145;42.726;23.342;2022-09-12T01:17:39;95137.31;;;15.95;92.71
6224;BME280;3145;42.726;23.342;2022-09-12T01:20:39;95122.31;;;15.76;92.64
6224;BME280;3145;42.726;23.342;2022-09-12T01:26:47;95133.19;;;15.75;93.69
6224;BME280;3145;42.726;23.342;2022-09-12T01:32:34;95135.88;;;15.68;94.05
6224;BME280;3145;42.726;23.342;2022-09-12T01:35:08;95139.53;;;15.74;94.33
6224;BME280;3145;42.726;23.342;2022-09-12T01:37:48;95135.84;;;15.75;93.98
6224;BME280;3145;42.726;23.342;2022-09-12T01:40:22;95138.09;;;15.78;93.84
6224;BME280;3145;42.726;23.342;2022-09-12T01:42:55;95136.22;;;15.78;93.61
6224;BME280;3145;42.726;23.342;2022-09-12T01:45:30;95134.09;;;15.87;93.65
6224;BME280;3145;42.726;23.342;2022-09-12T01:48:02;95130.34;;;15.94;93.45
6224;BME280;3145;42.726;23.342;2022-09-12T01:50:37;95131.03;;;15.90;93.21
6224;BME280;3145;42.726;23.342;2022-09-12T01:53:08;95126.50;;;15.90;93.20
6224;BME280;3145;42.726;23.342;2022-09-12T01:55:42;95117.25;;;15.93;92.19
6224;BME280;3145;42.726;23.342;2022-09-12T01:58:13;95119.75;;;15.88;92.48
6224;BME280;3145;42.726;23.342;2022-09-12T02:00:46;95114.84;;;15.85;92.15
6224;BME280;3145;42.726;23.342;2022-09-12T02:03:19;95119.69;;;15.70;92.46
6224;BME280;3145;42.726;23.342;2022-09-12T02:05:53;95133.66;;;15.65;92.50
6224;BME280;3145;42.726;23.342;2022-09-12T02:08:25;95137.72;;;15.68;92.70
6224;BME280;3145;42.726;23.342;2022-09-12T02:10:57;95127.31;;;15.60;92.24
6224;BME280;3145;42.726;23.342;2022-09-12T02:13:29;95124.34;;;15.50;92.75
6224;BME280;3145;42.726;23.342;2022-09-12T02:16:03;95133.78;;;15.46;92.61
6224;BME280;3145;42.726;23.342;2022-09-12T02:18:33;95131.13;;;15.46;93.27
6224;BME280;3145;42.726;23.342;2022-09-12T02:21:05;95116.41;;;15.30;93.28
6224;BME280;3145;42.726;23.342;2022-09-12T02:23:32;95094.06;;;15.00;92.98
6224;BME280;3145;42.726;23.342;2022-09-12T02:26:03;95125.47;;;15.23;93.91
6224;BME280;3145;42.726;23.342;2022-09-12T02:28:34;95137.34;;;15.27;94.01
6224;BME280;3145;42.726;23.342;2022-09-12T02:31:07;95138.09;;;15.34;94.13
6224;BME280;3145;42.726;23.342;2022-09-12T02:33:45;95139.56;;;15.36;93.93
6224;BME280;3145;42.726;23.342;2022-09-12T02:36:18;95128.25;;;15.34;93.37
6224;BME280;3145;42.726;23.342;2022-09-12T02:38:49;95132.19;;;15.32;93.62
6224;BME280;3145;42.726;23.342;2022-09-12T02:41:18;95130.75;;;15.36;93.21
6224;BME280;3145;42.726;23.342;2022-09-12T02:43:46;95137.34;;;15.27;92.91
6224;BME280;3145;42.726;23.342;2022-09-12T02:46:19;95130.59;;;15.18;92.90
6224;BME280;3145;42.726;23.342;2022-09-12T02:48:48;95141.06;;;15.13;93.03
6224;BME280;3145;42.726;23.342;2022-09-12T02:51:15;95137.03;;;15.04;93.56
6224;BME280;3145;42.726;23.342;2022-09-12T02:53:43;95141.06;;;15.13;94.13
6224;BME280;3145;42.726;23.342;2022-09-12T02:56:11;95143.91;;;15.18;93.86
6224;BME280;3145;42.726;23.342;2022-09-12T02:58:39;95146.34;;;15.19;93.53
6224;BME280;3145;42.726;23.342;2022-09-12T03:01:11;95141.00;;;15.26;93.43
6224;BME280;3145;42.726;23.342;2022-09-12T03:03:57;95139.38;;;15.25;93.02
6224;BME280;3145;42.726;23.342;2022-09-12T03:06:32;95145.13;;;15.22;93.08
6224;BME280;3145;42.726;23.342;2022-09-12T03:09:08;95146.78;;;15.23;92.67
6224;BME280;3145;42.726;23.342;2022-09-12T03:11:56;95148.41;;;15.24;92.81
6224;BME280;3145;42.726;23.342;2022-09-12T03:14:43;95148.41;;;15.24;93.10
6224;BME280;3145;42.726;23.342;2022-09-12T03:17:23;95154.75;;;15.23;92.59
6224;BME280;3145;42.726;23.342;2022-09-12T03:20:00;95150.03;;;15.25;93.09
6224;BME280;3145;42.726;23.342;2022-09-12T03:22:33;95115.97;;;14.96;92.39
6224;BME280;3145;42.726;23.342;2022-09-12T03:25:11;95145.97;;;15.16;92.54
6224;BME280;3145;42.726;23.342;2022-09-12T03:27:43;95146.34;;;15.19;92.77
6224;BME280;3145;42.726;23.342;2022-09-12T03:30:12;95150.44;;;15.22;92.30
6224;BME280;3145;42.726;23.342;2022-09-12T03:32:39;95147.22;;;15.13;92.47
6224;BME280;3145;42.726;23.342;2022-09-12T03:35:08;95145.59;;;15.06;92.65
6224;BME280;3145;42.726;23.342;2022-09-12T03:37:35;95145.59;;;15.06;93.11
6224;BME280;3145;42.726;23.342;2022-09-12T03:40:02;95139.50;;;14.99;92.99
6224;BME280;3145;42.726;23.342;2022-09-12T03:42:29;95146.22;;;15.08;93.11
6224;BME280;3145;42.726;23.342;2022-09-12T03:44:56;95145.59;;;15.12;93.29
6224;BME280;3145;42.726;23.342;2022-09-12T03:47:23;95152.13;;;15.10;92.77
6224;BME280;3145;42.726;23.342;2022-09-12T03:49:49;95145.81;;;15.11;92.40
6224;BME280;3145;42.726;23.342;2022-09-12T03:52:18;95144.16;;;15.10;92.87
6224;BME280;3145;42.726;23.342;2022-09-12T03:54:44;95151.13;;;15.11;92.29
6224;BME280;3145;42.726;23.342;2022-09-12T03:57:11;95149.66;;;15.15;92.80
6224;BME280;3145;42.726;23.342;2022-09-12T03:59:38;95142.31;;;15.10;92.47
6224;BME280;3145;42.726;23.342;2022-09-12T04:02:04;95160.72;;;15.12;92.83
6224;BME280;3145;42.726;23.342;2022-09-12T04:04:32;95150.09;;;15.12;92.61
6224;BME280;3145;42.726;23.342;2022-09-12T04:06:59;95154.97;;;15.21;92.75
6224;BME280;3145;42.726;23.342;2022-09-12T04:09:27;95153.72;;;15.24;92.69
6224;BME280;3145;42.726;23.342;2022-09-12T04:11:53;95160.06;;;15.23;92.16
6224;BME280;3145;42.726;23.342;2022-09-12T04:14:20;95152.88;;;15.23;92.74
6224;BME280;3145;42.726;23.342;2022-09-12T04:16:47;95161.88;;;15.29;92.36
6224;BME280;3145;42.726;23.342;2022-09-12T04:19:13;95170.28;;;15.39;92.75
6224;BME280;3145;42.726;23.342;2022-09-12T04:21:40;95160.06;;;15.67;92.15
6224;BME280;3145;42.726;23.342;2022-09-12T04:24:07;95161.69;;;15.99;91.37
6224;BME280;3145;42.726;23.342;2022-09-12T04:26:35;95168.53;;;16.13;89.75
6224;BME280;3145;42.726;23.342;2022-09-12T04:29:02;95163.84;;;16.33;88.96
6224;BME280;3145;42.726;23.342;2022-09-12T04:31:29;95169.94;;;16.46;89.00
6224;BME280;3145;42.726;23.342;2022-09-12T04:33:57;95156.50;;;16.59;89.87
6224;BME280;3145;42.726;23.342;2022-09-12T04:36:25;95158.56;;;16.93;87.79
6224;BME280;3145;42.726;23.342;2022-09-12T04:38:52;95159.91;;;17.20;85.21
6224;BME280;3145;42.726;23.342;2022-09-12T04:41:21;95160.84;;;17.44;84.55
6224;BME280;3145;42.726;23.342;2022-09-12T04:43:53;95158.91;;;17.69;82.96
6224;BME280;3145;42.726;23.342;2022-09-12T04:46:20;95168.00;;;17.91;82.71
6224;BME280;3145;42.726;23.342;2022-09-12T04:48:47;95151.69;;;18.11;81.35
6224;BME280;3145;42.726;23.342;2022-09-12T04:51:16;95175.72;;;18.63;80.02
6224;BME280;3145;42.726;23.342;2022-09-12T04:53:46;95183.31;;;18.89;78.10
6224;BME280;3145;42.726;23.342;2022-09-12T04:56:14;95178.13;;;19.22;77.36
6224;BME280;3145;42.726;23.342;2022-09-12T04:58:40;95176.03;;;19.47;75.75
6224;BME280;3145;42.726;23.342;2022-09-12T05:01:10;95176.53;;;19.61;74.06
6224;BME280;3145;42.726;23.342;2022-09-12T05:03:38;95166.06;;;19.87;74.11
6224;BME280;3145;42.726;23.342;2022-09-12T05:06:09;95165.72;;;20.12;72.55
6224;BME280;3145;42.726;23.342;2022-09-12T05:08:36;95147.47;;;19.97;71.75
6224;BME280;3145;42.726;23.342;2022-09-12T05:11:04;95180.00;;;20.45;71.62
6224;BME280;3145;42.726;23.342;2022-09-12T05:13:32;95186.59;;;20.71;69.65
6224;BME280;3145;42.726;23.342;2022-09-12T05:16:01;95176.19;;;20.74;69.22
6224;BME280;3145;42.726;23.342;2022-09-12T05:18:31;95183.56;;;21.00;67.78
6224;BME280;3145;42.726;23.342;2022-09-12T05:20:58;95156.84;;;21.10;67.27
6224;BME280;3145;42.726;23.342;2022-09-12T05:23:25;95175.03;;;21.03;66.14
6224;BME280;3145;42.726;23.342;2022-09-12T05:25:54;95177.06;;;20.47;67.95
6224;BME280;3145;42.726;23.342;2022-09-12T05:28:22;95184.47;;;19.95;69.40
6224;BME280;3145;42.726;23.342;2022-09-12T05:30:59;95186.56;;;19.93;71.09
6224;BME280;3145;42.726;23.342;2022-09-12T05:33:26;95183.13;;;19.81;71.00
6224;BME280;3145;42.726;23.342;2022-09-12T05:35:54;95193.25;;;19.51;71.76
6224;BME280;3145;42.726;23.342;2022-09-12T05:38:21;95190.72;;;19.33;72.41
6224;BME280;3145;42.726;23.342;2022-09-12T05:40:48;95192.59;;;19.10;73.11
6224;BME280;3145;42.726;23.342;2022-09-12T05:43:15;95195.66;;;19.02;74.43
6224;BME280;3145;42.726;23.342;2022-09-12T05:45:42;95177.00;;;19.30;73.48
6224;BME280;3145;42.726;23.342;2022-09-12T05:48:09;95189.44;;;19.36;73.15
6224;BME280;3145;42.726;23.342;2022-09-12T05:50:35;95189.31;;;19.19;73.24
6224;BME280;3145;42.726;23.342;2022-09-12T05:53:04;95181.63;;;19.11;73.73
6224;BME280;3145;42.726;23.342;2022-09-12T05:55:30;95177.31;;;19.33;74.56
6224;BME280;3145;42.726;23.342;2022-09-12T05:57:57;95171.97;;;20.01;73.03
6224;BME280;3145;42.726;23.342;2022-09-12T06:00:24;95176.41;;;20.23;70.26
6224;BME280;3145;42.726;23.342;2022-09-12T06:02:51;95167.31;;;20.57;70.47
6224;BME280;3145;42.726;23.342;2022-09-12T06:05:18;95170.19;;;21.05;68.37
6224;BME280;3145;42.726;23.342;2022-09-12T06:07:45;95159.81;;;21.30;66.71
6224;BME280;3145;42.726;23.342;2022-09-12T06:10:13;95155.47;;;21.94;66.70
6224;BME280;3145;42.726;23.342;2022-09-12T06:12:42;95130.81;;;22.34;64.33
6224;BME280;3145;42.726;23.342;2022-09-12T06:15:09;95160.44;;;23.02;62.13
6224;BME280;3145;42.726;23.342;2022-09-12T06:17:36;95170.13;;;23.39;59.67
6224;BME280;3145;42.726;23.342;2022-09-12T06:20:03;95165.09;;;23.68;57.99
6224;BME280;3145;42.726;23.342;2022-09-12T06:22:30;95169.75;;;23.77;57.38
6224;BME280;3145;42.726;23.342;2022-09-12T06:24:57;95174.38;;;23.87;56.55
6224;BME280;3145;42.726;23.342;2022-09-12T06:27:25;95179.03;;;23.96;56.84
6224;BME280;3145;42.726;23.342;2022-09-12T06:29:51;95178.59;;;23.63;56.27
6224;BME280;3145;42.726;23.342;2022-09-12T06:32:18;95185.16;;;23.82;56.60
6224;BME280;3145;42.726;23.342;2022-09-12T06:34:45;95177.63;;;23.89;56.20
6224;BME280;3145;42.726;23.342;2022-09-12T06:37:13;95178.50;;;23.99;55.45
6224;BME280;3145;42.726;23.342;2022-09-12T06:39:39;95191.44;;;23.97;55.35
6224;BME280;3145;42.726;23.342;2022-09-12T06:42:06;95186.91;;;24.18;54.51
6224;BME280;3145;42.726;23.342;2022-09-12T06:44:34;95188.22;;;24.05;53.90
6224;BME280;3145;42.726;23.342;2022-09-12T06:47:01;95195.91;;;23.72;56.13
6224;BME280;3145;42.726;23.342;2022-09-12T06:49:28;95193.09;;;23.98;56.11
6224;BME280;3145;42.726;23.342;2022-09-12T06:51:55;95192.81;;;24.05;56.50
6224;BME280;3145;42.726;23.342;2022-09-12T06:54:22;95204.25;;;24.47;54.89
6224;BME280;3145;42.726;23.342;2022-09-12T06:56:51;95188.00;;;24.22;55.08
6224;BME280;3145;42.726;23.342;2022-09-12T06:59:17;95198.34;;;24.60;54.91
6224;BME280;3145;42.726;23.342;2022-09-12T07:01:46;95196.72;;;24.94;53.16
6224;BME280;3145;42.726;23.342;2022-09-12T07:04:12;95192.94;;;24.65;53.35
6224;BME280;3145;42.726;23.342;2022-09-12T07:06:40;95202.53;;;24.11;54.43
6224;BME280;3145;42.726;23.342;2022-09-12T07:09:10;95201.75;;;24.10;53.98
6224;BME280;3145;42.726;23.342;2022-09-12T07:11:39;95204.16;;;24.12;54.88
6224;BME280;3145;42.726;23.342;2022-09-12T07:14:07;95211.81;;;24.40;54.29
6224;BME280;3145;42.726;23.342;2022-09-12T07:16:34;95201.09;;;23.83;53.30
6224;BME280;3145;42.726;23.342;2022-09-12T07:19:04;95204.47;;;24.15;53.96
6224;BME280;3145;42.726;23.342;2022-09-12T07:21:31;95201.41;;;23.40;54.54
6224;BME280;3145;42.726;23.342;2022-09-12T07:24:01;95202.03;;;23.16;54.90
6224;BME280;3145;42.726;23.342;2022-09-12T07:26:28;95205.91;;;22.88;56.42
6224;BME280;3145;42.726;23.342;2022-09-12T07:28:56;95199.38;;;22.48;56.72
6224;BME280;3145;42.726;23.342;2022-09-12T07:31:25;95193.59;;;22.66;58.19
6224;BME280;3145;42.726;23.342;2022-09-12T07:33:52;95186.72;;;22.85;56.70
6224;BME280;3145;42.726;23.342;2022-09-12T07:36:22;95171.25;;;22.39;56.97
6224;BME280;3145;42.726;23.342;2022-09-12T07:38:53;95198.97;;;22.39;56.80
6224;BME280;3145;42.726;23.342;2022-09-12T07:41:21;95195.88;;;22.84;57.70
6224;BME280;3145;42.726;23.342;2022-09-12T07:43:50;95186.63;;;23.48;56.41
6224;BME280;3145;42.726;23.342;2022-09-12T07:46:17;95193.41;;;23.09;54.67
6224;BME280;3145;42.726;23.342;2022-09-12T07:48:48;95195.72;;;22.64;55.27
6224;BME280;3145;42.726;23.342;2022-09-12T07:51:15;95195.91;;;22.26;55.49
6224;BME280;3145;42.726;23.342;2022-09-12T07:53:45;95197.56;;;22.32;57.30
6224;BME280;3145;42.726;23.342;2022-09-12T07:56:12;95199.81;;;23.03;56.80
6224;BME280;3145;42.726;23.342;2022-09-12T07:58:39;95205.75;;;23.46;54.39
6224;BME280;3145;42.726;23.342;2022-09-12T08:01:09;95210.28;;;23.31;52.82
6224;BME280;3145;42.726;23.342;2022-09-12T08:03:37;95200.66;;;23.08;53.75
6224;BME280;3145;42.726;23.342;2022-09-12T08:06:06;95200.50;;;22.83;54.75
6224;BME280;3145;42.726;23.342;2022-09-12T08:08:33;95203.25;;;22.93;54.65
6224;BME280;3145;42.726;23.342;2022-09-12T08:11:03;95194.06;;;22.89;54.58
6224;BME280;3145;42.726;23.342;2022-09-12T08:13:32;95205.06;;;22.83;54.47
6224;BME280;3145;42.726;23.342;2022-09-12T08:16:00;95194.50;;;22.23;56.58
6224;BME280;3145;42.726;23.342;2022-09-12T08:18:28;95201.94;;;22.38;55.85
6224;BME280;3145;42.726;23.342;2022-09-12T08:20:56;95205.19;;;22.40;57.22
6224;BME280;3145;42.726;23.342;2022-09-12T08:23:22;95191.97;;;22.12;56.47
6224;BME280;3145;42.726;23.342;2022-09-12T08:25:50;95201.63;;;22.08;56.63
6224;BME280;3145;42.726;23.342;2022-09-12T08:28:18;95197.59;;;21.83;58.15
6224;BME280;3145;42.726;23.342;2022-09-12T08:30:44;95195.50;;;21.47;57.10
6224;BME280;3145;42.726;23.342;2022-09-12T08:33:11;95199.19;;;21.41;58.13
6224;BME280;3145;42.726;23.342;2022-09-12T08:35:39;95185.47;;;21.21;58.20
6224;BME280;3145;42.726;23.342;2022-09-12T08:38:06;95198.22;;;21.09;58.97
6224;BME280;3145;42.726;23.342;2022-09-12T08:40:41;95190.06;;;20.88;59.50
6224;BME280;3145;42.726;23.342;2022-09-12T08:43:26;95185.34;;;20.45;60.75
6224;BME280;3145;42.726;23.342;2022-09-12T08:46:00;95184.41;;;20.51;60.64
6224;BME280;3145;42.726;23.342;2022-09-12T08:48:29;95166.50;;;20.57;61.95
6224;BME280;3145;42.726;23.342;2022-09-12T08:50:56;95181.97;;;20.66;61.35
6224;BME280;3145;42.726;23.342;2022-09-12T08:53:24;95174.88;;;20.77;61.98
6224;BME280;3145;42.726;23.342;2022-09-12T08:55:55;95178.03;;;20.90;61.45
6224;BME280;3145;42.726;23.342;2022-09-12T08:58:27;95166.97;;;21.03;60.11
6224;BME280;3145;42.726;23.342;2022-09-12T09:00:58;95168.63;;;21.47;59.68
6224;BME280;3145;42.726;23.342;2022-09-12T09:06:56;95180.34;;;22.33;54.84
6224;BME280;3145;42.726;23.342;2022-09-12T09:09:33;95173.69;;;22.72;53.42
6224;BME280;3145;42.726;23.342;2022-09-12T09:12:11;95183.34;;;22.99;53.23
6224;BME280;3145;42.726;23.342;2022-09-12T09:14:51;95176.09;;;23.05;54.12
6224;BME280;3145;42.726;23.342;2022-09-12T09:17:23;95170.31;;;23.28;52.19
6224;BME280;3145;42.726;23.342;2022-09-12T09:19:56;95164.59;;;23.76;50.80
6224;BME280;3145;42.726;23.342;2022-09-12T09:22:35;95163.56;;;23.77;50.46
6224;BME280;3145;42.726;23.342;2022-09-12T09:25:08;95163.63;;;23.97;50.15
6224;BME280;3145;42.726;23.342;2022-09-12T09:27:41;95161.72;;;23.92;48.86
6224;BME280;3145;42.726;23.342;2022-09-12T09:30:17;95153.94;;;24.01;50.11
6224;BME280;3145;42.726;23.342;2022-09-12T09:32:48;95148.28;;;24.37;49.08
6224;BME280;3145;42.726;23.342;2022-09-12T09:35:21;95145.84;;;24.06;49.15
6224;BME280;3145;42.726;23.342;2022-09-12T09:38:00;95151.75;;;23.93;50.07
6224;BME280;3145;42.726;23.342;2022-09-12T09:40:38;95141.47;;;23.95;49.36
6224;BME280;3145;42.726;23.342;2022-09-12T09:43:16;95142.56;;;23.94;51.10
6224;BME280;3145;42.726;23.342;2022-09-12T09:45:45;95142.06;;;24.27;50.03
6224;BME280;3145;42.726;23.342;2022-09-12T09:48:17;95141.00;;;24.13;48.70
6224;BME280;3145;42.726;23.342;2022-09-12T09:50:45;95134.50;;;24.19;49.87
6224;BME280;3145;42.726;23.342;2022-09-12T09:53:24;95145.88;;;24.26;48.53
6224;BME280;3145;42.726;23.342;2022-09-12T09:55:54;95130.19;;;24.43;49.12
6224;BME280;3145;42.726;23.342;2022-09-12T09:58:32;95131.81;;;24.59;48.45
6224;BME280;3145;42.726;23.342;2022-09-12T10:01:01;95139.94;;;24.59;47.90
6224;BME280;3145;42.726;23.342;2022-09-12T10:03:33;95136.19;;;24.65;46.80
6224;BME280;3145;42.726;23.342;2022-09-12T10:06:06;95125.63;;;24.73;47.42
6224;BME280;3145;42.726;23.342;2022-09-12T10:08:35;95139.97;;;24.69;45.78
6224;BME280;3145;42.726;23.342;2022-09-12T10:11:04;95135.34;;;24.79;45.33
6224;BME280;3145;42.726;23.342;2022-09-12T10:13:34;95114.28;;;24.66;45.12
6224;BME280;3145;42.726;23.342;2022-09-12T10:16:05;95125.34;;;24.55;46.08
6224;BME280;3145;42.726;23.342;2022-09-12T10:18:39;95136.16;;;24.40;45.04
6224;BME280;3145;42.726;23.342;2022-09-12T10:21:29;95133.97;;;24.42;45.67
6224;BME280;3145;42.726;23.342;2022-09-12T10:24:01;95142.66;;;24.49;45.50
6224;BME280;3145;42.726;23.342;2022-09-12T10:26:34;95142.63;;;24.34;44.89
6224;BME280;3145;42.726;23.342;2022-09-12T10:29:10;95096.13;;;24.02;45.43
6224;BME280;3145;42.726;23.342;2022-09-12T10:31:46;95139.63;;;24.25;46.02
6224;BME280;3145;42.726;23.342;2022-09-12T10:34:21;95125.84;;;24.12;47.85
6224;BME280;3145;42.726;23.342;2022-09-12T10:36:52;95116.66;;;24.08;46.07
6224;BME280;3145;42.726;23.342;2022-09-12T10:39:20;95125.34;;;24.40;45.68
6224;BME280;3145;42.726;23.342;2022-09-12T10:41:48;95128.63;;;24.62;44.95
6224;BME280;3145;42.726;23.342;2022-09-12T10:44:16;95112.41;;;24.62;43.20
6224;BME280;3145;42.726;23.342;2022-09-12T10:46:45;95131.56;;;24.85;43.00
6224;BME280;3145;42.726;23.342;2022-09-12T10:49:18;95129.69;;;24.76;42.86
6224;BME280;3145;42.726;23.342;2022-09-12T10:51:46;95129.94;;;24.79;43.83
6224;BME280;3145;42.726;23.342;2022-09-12T10:54:16;95147.53;;;24.77;43.32
6224;BME280;3145;42.726;23.342;2022-09-12T10:56:51;95139.94;;;24.79;44.36
6224;BME280;3145;42.726;23.342;2022-09-12T10:59:26;95128.84;;;24.15;44.78
6224;BME280;3145;42.726;23.342;2022-09-12T11:02:01;95137.09;;;23.84;46.63
6224;BME280;3145;42.726;23.342;2022-09-12T11:04:46;95139.72;;;23.64;46.55
6224;BME280;3145;42.726;23.342;2022-09-12T11:07:26;95133.75;;;23.52;46.95
6224;BME280;3145;42.726;23.342;2022-09-12T11:10:02;95155.66;;;23.14;47.75
6224;BME280;3145;42.726;23.342;2022-09-12T11:12:36;95161.38;;;23.22;47.83
6224;BME280;3145;42.726;23.342;2022-09-12T11:15:21;95148.31;;;22.99;48.49
6224;BME280;3145;42.726;23.342;2022-09-12T11:18:00;95157.31;;;23.20;48.36
6224;BME280;3145;42.726;23.342;2022-09-12T11:20:41;95142.72;;;23.67;47.23
6224;BME280;3145;42.726;23.342;2022-09-12T11:23:30;95146.09;;;23.99;47.12
6224;BME280;3145;42.726;23.342;2022-09-12T11:26:07;95144.22;;;24.05;45.70
6224;BME280;3145;42.726;23.342;2022-09-12T11:28:49;95136.41;;;24.33;45.04
6224;BME280;3145;42.726;23.342;2022-09-12T11:31:41;95145.56;;;24.07;45.44
6224;BME280;3145;42.726;23.342;2022-09-12T11:34:15;95157.41;;;24.01;45.20
6224;BME280;3145;42.726;23.342;2022-09-12T11:36:55;95119.03;;;23.89;43.93
6224;BME280;3145;42.726;23.342;2022-09-12T11:39:29;95146.47;;;23.66;45.46
6224;BME280;3145;42.726;23.342;2022-09-12T11:42:02;95138.84;;;23.43;45.22
6224;BME280;3145;42.726;23.342;2022-09-12T11:44:34;95138.03;;;23.48;46.13
6224;BME280;3145;42.726;23.342;2022-09-12T11:47:04;95146.66;;;23.40;44.75
6224;BME280;3145;42.726;23.342;2022-09-12T11:49:37;95150.50;;;23.59;45.31
6224;BME280;3145;42.726;23.342;2022-09-12T11:52:12;95133.50;;;23.58;45.60
6224;BME280;3145;42.726;23.342;2022-09-12T11:54:42;95139.69;;;23.49;45.73
6224;BME280;3145;42.726;23.342;2022-09-12T11:57:16;95137.41;;;23.21;45.09
6224;BME280;3145;42.726;23.342;2022-09-12T11:59:48;95136.16;;;23.43;44.12
6224;BME280;3145;42.726;23.342;2022-09-12T12:02:24;95141.50;;;23.33;42.64
6224;BME280;3145;42.726;23.342;2022-09-12T12:05:03;95146.88;;;23.28;44.42
6224;BME280;3145;42.726;23.342;2022-09-12T12:07:40;95141.63;;;23.12;45.11
6224;BME280;3145;42.726;23.342;2022-09-12T12:10:22;95141.09;;;23.10;44.99
6224;BME280;3145;42.726;23.342;2022-09-12T12:12:51;95137.31;;;23.16;44.78
6224;BME280;3145;42.726;23.342;2022-09-12T12:15:20;95136.19;;;23.07;46.01
6224;BME280;3145;42.726;23.342;2022-09-12T12:17:59;95129.34;;;23.26;44.81
6224;BME280;3145;42.726;23.342;2022-09-12T12:20:28;95123.97;;;23.36;44.69
6224;BME280;3145;42.726;23.342;2022-09-12T12:22:55;95114.78;;;23.32;42.64
6224;BME280;3145;42.726;23.342;2022-09-12T12:25:25;95127.38;;;23.16;42.68
6224;BME280;3145;42.726;23.342;2022-09-12T12:28:04;95124.47;;;23.28;42.82
6224;BME280;3145;42.726;23.342;2022-09-12T12:30:58;95110.22;;;23.32;44.28
6224;BME280;3145;42.726;23.342;2022-09-12T12:34:00;95119.22;;;23.53;44.76
6224;BME280;3145;42.726;23.342;2022-09-12T12:36:35;95113.81;;;23.53;45.31
6224;BME280;3145;42.726;23.342;2022-09-12T12:42:05;95122.94;;;23.42;46.52
6224;BME280;3145;42.726;23.342;2022-09-12T12:44:49;95121.53;;;23.34;45.70
6224;BME280;3145;42.726;23.342;2022-09-12T12:47:19;95123.97;;;23.31;46.24
6224;BME280;3145;42.726;23.342;2022-09-12T12:49:52;95125.16;;;23.08;46.87
6224;BME280;3145;42.726;23.342;2022-09-12T12:52:23;95118.34;;;23.01;47.82
6224;BME280;3145;42.726;23.342;2022-09-12T12:54:55;95130.22;;;23.00;48.47
6224;BME280;3145;42.726;23.342;2022-09-12T12:57:26;95128.53;;;22.89;48.24
6224;BME280;3145;42.726;23.342;2022-09-12T12:59:56;95130.19;;;22.95;48.56
6224;BME280;3145;42.726;23.342;2022-09-12T13:02:29;95122.44;;;22.62;49.82
6224;BME280;3145;42.726;23.342;2022-09-12T13:04:58;95114.13;;;22.37;49.43
6224;BME280;3145;42.726;23.342;2022-09-12T13:07:30;95129.66;;;21.98;49.76
6224;BME280;3145;42.726;23.342;2022-09-12T13:09:59;95114.59;;;21.70;51.07
6224;BME280;3145;42.726;23.342;2022-09-12T13:12:29;95117.31;;;21.75;51.03
6224;BME280;3145;42.726;23.342;2022-09-12T13:14:58;95118.66;;;21.99;50.40
6224;BME280;3145;42.726;23.342;2022-09-12T13:17:28;95119.25;;;22.07;49.97
6224;BME280;3145;42.726;23.342;2022-09-12T13:20:15;95126.94;;;22.25;48.51
6224;BME280;3145;42.726;23.342;2022-09-12T13:22:46;95123.78;;;22.33;48.09
6224;BME280;3145;42.726;23.342;2022-09-12T13:25:24;95121.66;;;22.35;48.19
6224;BME280;3145;42.726;23.342;2022-09-12T13:28:00;95113.72;;;22.50;48.36
6224;BME280;3145;42.726;23.342;2022-09-12T13:30:28;95097.09;;;22.58;48.95
6224;BME280;3145;42.726;23.342;2022-09-12T13:32:57;95126.72;;;22.58;49.38
6224;BME280;3145;42.726;23.342;2022-09-12T13:35:39;95107.78;;;22.16;49.63
6224;BME280;3145;42.726;23.342;2022-09-12T13:38:17;95119.47;;;22.00;49.38
6224;BME280;3145;42.726;23.342;2022-09-12T13:41:00;95115.81;;;21.84;50.14
6224;BME280;3145;42.726;23.342;2022-09-12T13:43:37;95115.72;;;21.74;49.81